Time;durP1;ratioP1;P1;durP2;ratioP2;P2;SDS_P1;SDS_P2;PMS_P1;PMS_P2;Temp;Humidity;BMP_temperature;BMP_pressure;BME280_temperature;BME280_humidity;BME280_pressure;Samples;Min_cycle;Max_cycle;Signal;HPM_P1;HPM_P2
2024/02/12 00:00:19;;;;;;;4.20;2.67;;;16.20;62.60;;;;;;5112261;28;20202;-71
2024/02/12 00:02:45;;;;;;;3.17;2.20;;;16.20;62.50;;;;;;5112134;28;20181;-70
2024/02/12 00:05:11;;;;;;;3.10;2.80;;;16.10;62.50;;;;;;5111840;28;20188;-71
2024/02/12 00:07:39;;;;;;;3.22;2.50;;;16.10;62.50;;;;;;5112938;28;20177;-71
2024/02/12 00:10:10;;;;;;;3.67;2.70;;;16.10;62.60;;;;;;5112364;28;20268;-70
2024/02/12 00:12:37;;;;;;;2.88;2.58;;;16.10;62.60;;;;;;5112982;28;20542;-70
2024/02/12 00:15:03;;;;;;;3.10;2.80;;;16.10;62.60;;;;;;5112965;28;20559;-70
2024/02/12 00:17:28;;;;;;;2.58;2.28;;;16.10;62.60;;;;;;5112182;28;20176;-70
2024/02/12 00:19:55;;;;;;;2.50;2.25;;;16.10;62.60;;;;;;5112992;28;20205;-70
2024/02/12 00:22:20;;;;;;;3.00;2.70;;;16.00;62.50;;;;;;5112671;28;20169;-69
2024/02/12 00:24:46;;;;;;;3.08;2.60;;;16.00;62.50;;;;;;5112175;28;20176;-69
2024/02/12 00:27:12;;;;;;;3.33;2.60;;;16.00;62.50;;;;;;5112966;28;20276;-69
2024/02/12 00:29:38;;;;;;;2.55;2.35;;;16.00;62.50;;;;;;5112413;28;20361;-68
2024/02/12 00:32:04;;;;;;;3.38;2.65;;;16.00;62.50;;;;;;5112291;28;20181;-69
2024/02/12 00:34:33;;;;;;;4.07;2.78;;;16.00;62.50;;;;;;5112526;28;20213;-71
2024/02/12 00:36:59;;;;;;;3.22;2.92;;;16.00;62.50;;;;;;5112782;28;20256;-70
2024/02/12 00:39:25;;;;;;;3.33;2.88;;;16.00;62.50;;;;;;5111674;28;20269;-69
2024/02/12 00:41:50;;;;;;;3.47;3.00;;;15.90;62.50;;;;;;5112922;28;20545;-69
2024/02/12 00:44:17;;;;;;;3.60;2.55;;;16.00;62.50;;;;;;5112801;28;20234;-70
2024/02/12 00:46:47;;;;;;;3.15;2.80;;;15.90;62.50;;;;;;5111995;28;20607;-70
2024/02/12 00:49:16;;;;;;;3.05;2.85;;;15.90;62.40;;;;;;5112669;28;20170;-70
2024/02/12 00:51:42;;;;;;;3.47;3.20;;;15.90;62.40;;;;;;5111774;28;20177;-69
2024/02/12 00:54:14;;;;;;;4.13;3.20;;;15.90;62.50;;;;;;5112153;28;20744;-68
2024/02/12 00:56:46;;;;;;;3.38;3.00;;;15.90;62.50;;;;;;5112513;28;20197;-68
2024/02/12 00:59:14;;;;;;;3.72;3.42;;;15.90;62.50;;;;;;5111922;28;20181;-68
2024/02/12 01:01:40;;;;;;;3.33;2.60;;;15.90;62.50;;;;;;5112091;28;20260;-69
2024/02/12 01:04:07;;;;;;;3.30;3.00;;;15.80;62.40;;;;;;5112496;28;20280;-69
2024/02/12 01:06:33;;;;;;;4.32;3.15;;;15.90;62.50;;;;;;5111350;28;20180;-69
2024/02/12 01:08:58;;;;;;;4.63;3.60;;;15.80;62.40;;;;;;5112611;28;20173;-70
2024/02/12 01:11:24;;;;;;;3.97;3.00;;;15.90;62.40;;;;;;5112221;28;20172;-68
2024/02/12 01:13:50;;;;;;;3.53;2.65;;;15.80;62.40;;;;;;5111708;28;20219;-68
2024/02/12 01:16:18;;;;;;;4.57;3.17;;;15.80;62.40;;;;;;5112417;28;20196;-69
2024/02/12 01:18:44;;;;;;;3.40;3.10;;;15.80;62.40;;;;;;5112223;28;20639;-68
2024/02/12 01:21:09;;;;;;;3.33;3.05;;;15.80;62.40;;;;;;5111842;28;20206;-68
2024/02/12 01:23:35;;;;;;;3.25;2.95;;;15.80;62.40;;;;;;5112164;28;20169;-67
2024/02/12 01:26:00;;;;;;;5.60;3.00;;;15.80;62.40;;;;;;5112455;28;20172;-67
2024/02/12 01:28:27;;;;;;;3.88;3.00;;;15.80;62.40;;;;;;5111332;28;20514;-68
2024/02/12 01:30:52;;;;;;;3.53;3.22;;;15.80;62.30;;;;;;5112096;28;20542;-68
2024/02/12 01:33:20;;;;;;;3.60;2.80;;;15.80;62.40;;;;;;5110695;28;20200;-69
2024/02/12 01:35:48;;;;;;;4.07;3.42;;;15.80;62.40;;;;;;5111488;28;20165;-69
2024/02/12 01:38:16;;;;;;;3.70;3.40;;;15.70;62.20;;;;;;5111848;28;20173;-70
2024/02/12 01:40:41;;;;;;;3.85;3.20;;;15.70;62.20;;;;;;5113500;28;20268;-69
2024/02/12 01:43:07;;;;;;;4.15;3.13;;;15.80;62.30;;;;;;5116007;28;20268;-69
2024/02/12 01:45:33;;;;;;;3.75;3.25;;;15.80;62.30;;;;;;5114489;28;20266;-69
2024/02/12 01:48:01;;;;;;;4.55;3.25;;;15.70;62.20;;;;;;5115257;28;20687;-68
2024/02/12 01:50:27;;;;;;;4.93;3.42;;;15.70;62.20;;;;;;5114369;28;20562;-69
2024/02/12 01:52:52;;;;;;;3.65;3.35;;;15.70;62.20;;;;;;5114557;28;20197;-68
2024/02/12 01:55:20;;;;;;;3.50;3.20;;;15.70;62.20;;;;;;5113682;28;20727;-68
2024/02/12 01:57:46;;;;;;;3.72;3.40;;;15.70;62.20;;;;;;5115872;28;20173;-68
2024/02/12 02:00:17;;;;;;;4.20;3.72;;;15.70;62.20;;;;;;5115742;28;20238;-68
2024/02/12 02:02:45;;;;;;;4.07;3.30;;;15.70;62.20;;;;;;5114885;28;20183;-68
2024/02/12 02:05:12;;;;;;;4.25;3.60;;;15.70;62.20;;;;;;5114627;28;20173;-68
2024/02/12 02:07:38;;;;;;;3.85;3.45;;;15.70;62.20;;;;;;5115301;28;20183;-69
2024/02/12 02:10:08;;;;;;;4.82;3.45;;;15.70;62.20;;;;;;5114975;28;20260;-69
2024/02/12 02:12:37;;;;;;;3.58;3.35;;;15.70;62.20;;;;;;5115300;28;20181;-68
2024/02/12 02:15:03;;;;;;;4.20;3.72;;;15.70;63.00;;;;;;5114188;28;20177;-69
2024/02/12 02:17:29;;;;;;;3.35;3.05;;;15.70;62.20;;;;;;5114767;28;20176;-68
2024/02/12 02:19:58;;;;;;;3.45;3.15;;;15.60;62.10;;;;;;5115601;28;20173;-67
2024/02/12 02:22:24;;;;;;;3.72;3.28;;;15.70;62.20;;;;;;5114138;28;20169;-69
2024/02/12 02:24:52;;;;;;;3.97;3.35;;;15.70;62.20;;;;;;5114898;28;20573;-67
2024/02/12 02:27:17;;;;;;;3.85;3.55;;;15.60;62.10;;;;;;5114910;28;20169;-68
2024/02/12 02:29:43;;;;;;;3.65;3.20;;;15.70;62.10;;;;;;5114954;28;20185;-68
2024/02/12 02:32:09;;;;;;;3.55;3.25;;;15.70;62.10;;;;;;5114577;28;20179;-68
2024/02/12 02:34:34;;;;;;;3.70;3.38;;;15.60;62.20;;;;;;5114843;28;20221;-69
2024/02/12 02:37:00;;;;;;;3.75;3.40;;;15.60;62.10;;;;;;5114389;28;20165;-69
2024/02/12 02:39:26;;;;;;;4.03;3.60;;;15.60;62.10;;;;;;5113503;28;20173;-69
2024/02/12 02:41:52;;;;;;;4.50;3.35;;;15.60;62.10;;;;;;5114915;28;20704;-69
2024/02/12 02:44:18;;;;;;;4.57;3.25;;;15.60;62.10;;;;;;5113853;28;20169;-69
2024/02/12 02:46:43;;;;;;;3.58;3.28;;;15.60;62.10;;;;;;5114992;28;20184;-69
2024/02/12 02:49:12;;;;;;;3.58;3.28;;;15.60;62.10;;;;;;5114692;28;20267;-68
2024/02/12 02:51:38;;;;;;;4.97;3.63;;;15.60;62.10;;;;;;5113683;28;20185;-68
2024/02/12 02:54:04;;;;;;;3.97;3.60;;;15.60;62.10;;;;;;5114535;28;20273;-68
2024/02/12 02:56:29;;;;;;;3.78;3.35;;;15.60;62.20;;;;;;5114366;28;20204;-67
2024/02/12 02:58:55;;;;;;;4.13;3.75;;;15.60;62.10;;;;;;5113745;28;20205;-68
2024/02/12 03:01:21;;;;;;;4.50;3.65;;;15.60;62.20;;;;;;5114394;28;20173;-68
2024/02/12 03:03:51;;;;;;;4.78;4.10;;;15.60;62.10;;;;;;5114597;28;20176;-68
2024/02/12 03:06:17;;;;;;;3.45;3.13;;;15.50;62.10;;;;;;5113655;28;20173;-70
2024/02/12 03:08:43;;;;;;;4.97;3.70;;;15.50;62.10;;;;;;5114405;28;20254;-69
2024/02/12 03:11:08;;;;;;;4.53;4.07;;;15.60;62.20;;;;;;5114455;28;20193;-69
2024/02/12 03:13:36;;;;;;;4.03;3.13;;;15.60;62.10;;;;;;5113272;28;20270;-68
2024/02/12 03:16:02;;;;;;;4.05;3.75;;;15.50;62.10;;;;;;5114533;28;20169;-68
2024/02/12 03:18:27;;;;;;;4.25;3.33;;;15.50;62.10;;;;;;5113894;28;20200;-69
2024/02/12 03:20:53;;;;;;;4.15;3.58;;;15.50;62.10;;;;;;5113554;28;20180;-67
2024/02/12 03:23:18;;;;;;;4.05;3.70;;;15.60;62.20;;;;;;5113910;28;20162;-67
2024/02/12 03:25:44;;;;;;;5.07;3.63;;;15.50;62.10;;;;;;5114093;28;20216;-67
2024/02/12 03:28:09;;;;;;;4.07;3.78;;;15.60;62.10;;;;;;5113282;28;20580;-67
2024/02/12 03:30:35;;;;;;;3.53;3.22;;;15.50;62.00;;;;;;5113847;28;20169;-68
2024/02/12 03:33:02;;;;;;;4.20;3.80;;;15.50;62.10;;;;;;5114057;28;20209;-68
2024/02/12 03:35:28;;;;;;;3.85;3.55;;;15.50;62.10;;;;;;5113269;28;20188;-71
2024/02/12 03:37:54;;;;;;;4.13;3.72;;;15.50;62.10;;;;;;5113705;28;20212;-69
2024/02/12 03:40:22;;;;;;;5.18;3.80;;;15.50;62.10;;;;;;5112731;28;20188;-69
2024/02/12 03:42:49;;;;;;;4.68;3.20;;;15.50;62.00;;;;;;5113606;28;20542;-68
2024/02/12 03:45:16;;;;;;;3.95;3.55;;;15.50;62.00;;;;;;5113840;28;20191;-70
2024/02/12 03:47:43;;;;;;;4.13;3.67;;;15.50;62.10;;;;;;5113010;28;20169;-70
2024/02/12 04:01:13;;;;;;;3.65;3.35;;;15.50;62.10;;;;;;5113423;28;20760;-68
2024/02/12 04:03:38;;;;;;;4.00;3.35;;;15.50;62.10;;;;;;5112095;28;20215;-69
2024/02/12 04:06:06;;;;;;;3.78;3.45;;;15.50;62.10;;;;;;5112237;28;20173;-69
2024/02/12 04:08:32;;;;;;;4.50;3.40;;;15.40;62.00;;;;;;5112550;28;20180;-70
2024/02/12 04:10:58;;;;;;;3.90;3.33;;;15.50;62.10;;;;;;5113223;28;20539;-69
2024/02/12 04:13:24;;;;;;;5.20;3.63;;;15.50;62.10;;;;;;5112820;28;20204;-69
2024/02/12 04:15:51;;;;;;;4.45;3.63;;;15.50;62.10;;;;;;5112412;28;20256;-68
2024/02/12 04:18:17;;;;;;;6.40;3.85;;;15.50;62.90;;;;;;5112849;28;20181;-68
2024/02/12 04:20:43;;;;;;;4.00;3.60;;;15.50;62.10;;;;;;5113081;28;20165;-68
2024/02/12 04:23:14;;;;;;;3.97;3.58;;;15.40;62.00;;;;;;5112471;28;20286;-67
2024/02/12 04:25:40;;;;;;;6.00;4.43;;;15.40;62.00;;;;;;5112745;28;20574;-68
2024/02/12 04:28:09;;;;;;;5.07;3.55;;;15.40;62.00;;;;;;5111784;28;20169;-67
2024/02/12 04:30:35;;;;;;;5.00;3.90;;;15.50;62.10;;;;;;5111808;28;20208;-68
2024/02/12 04:33:01;;;;;;;4.28;3.88;;;15.40;62.00;;;;;;5112952;28;20287;-69
2024/02/12 04:35:27;;;;;;;4.03;3.63;;;15.40;62.00;;;;;;5112689;28;20177;-69
2024/02/12 04:37:54;;;;;;;4.88;3.85;;;15.40;62.00;;;;;;5112163;28;20221;-70
2024/02/12 04:40:22;;;;;;;5.30;3.65;;;15.40;62.00;;;;;;5112378;28;20691;-71
2024/02/12 04:42:48;;;;;;;5.35;4.15;;;15.40;62.00;;;;;;5112729;28;20184;-70
2024/02/12 04:45:14;;;;;;;4.88;4.22;;;15.40;62.00;;;;;;5111932;28;20176;-71
2024/02/12 04:47:43;;;;;;;4.10;3.65;;;15.40;62.00;;;;;;5112315;28;20242;-70
2024/02/12 04:50:09;;;;;;;3.80;3.42;;;15.30;61.90;;;;;;5112623;28;20166;-69
2024/02/12 04:52:34;;;;;;;5.03;3.75;;;15.40;62.00;;;;;;5111678;28;20173;-70
2024/02/12 04:55:00;;;;;;;4.30;3.47;;;15.30;61.90;;;;;;5112393;28;20228;-69
2024/02/12 04:57:26;;;;;;;4.70;4.03;;;15.30;62.00;;;;;;5112172;28;20272;-69
2024/02/12 04:59:52;;;;;;;7.15;4.03;;;15.30;62.00;;;;;;5112077;28;20226;-68
2024/02/12 05:02:18;;;;;;;4.78;3.65;;;15.40;62.00;;;;;;5112490;28;20182;-69
2024/02/12 05:04:44;;;;;;;4.18;3.55;;;15.40;62.00;;;;;;5111691;28;20165;-70
2024/02/12 05:07:10;;;;;;;4.32;3.92;;;15.30;62.00;;;;;;5112477;28;20181;-69
2024/02/12 05:09:35;;;;;;;3.88;3.58;;;15.40;62.00;;;;;;5112157;28;20176;-69
2024/02/12 05:12:01;;;;;;;4.75;4.00;;;15.40;62.00;;;;;;5111665;28;20231;-69
2024/02/12 05:14:27;;;;;;;4.22;3.42;;;15.30;62.00;;;;;;5112153;28;20220;-69
2024/02/12 05:16:59;;;;;;;4.60;3.80;;;15.30;61.90;;;;;;5116740;28;20173;-69
2024/02/12 05:24:54;;;;;;;6.35;5.18;;;15.30;62.00;;;;;;5116378;28;20218;-68
2024/02/12 05:27:19;;;;;;;5.10;3.85;;;15.30;61.90;;;;;;5115280;28;20180;-67
2024/02/12 05:29:45;;;;;;;4.63;4.22;;;15.30;61.90;;;;;;5116201;28;20181;-68
2024/02/12 05:32:11;;;;;;;5.82;4.38;;;15.30;61.90;;;;;;5116345;28;20179;-68
2024/02/12 05:34:37;;;;;;;4.78;4.38;;;15.30;61.90;;;;;;5115159;28;20216;-69
2024/02/12 05:37:02;;;;;;;5.97;4.57;;;15.30;62.00;;;;;;5116200;28;20248;-70
2024/02/12 05:39:31;;;;;;;6.75;5.15;;;15.30;61.90;;;;;;5115862;28;20275;-70
2024/02/12 05:41:57;;;;;;;5.43;4.00;;;15.30;61.90;;;;;;5115379;28;20221;-71
2024/02/12 05:44:22;;;;;;;5.07;4.43;;;15.20;61.90;;;;;;5115764;28;20177;-72
2024/02/12 05:46:49;;;;;;;5.70;4.32;;;15.20;61.90;;;;;;5115902;28;20176;-73
2024/02/12 05:49:21;;;;;;;4.85;4.30;;;15.20;61.90;;;;;;5115794;28;20181;-71
2024/02/12 05:51:47;;;;;;;5.75;4.82;;;15.30;61.90;;;;;;5115888;28;20210;-70
2024/02/12 05:54:12;;;;;;;5.18;4.45;;;15.30;62.00;;;;;;5115043;28;20229;-70
2024/02/12 05:56:39;;;;;;;4.68;4.22;;;15.30;61.80;;;;;;5115602;28;20177;-69
2024/02/12 05:59:05;;;;;;;4.32;3.92;;;15.30;61.80;;;;;;5115691;28;20177;-69
2024/02/12 06:01:31;;;;;;;5.10;4.55;;;15.40;61.80;;;;;;5114760;28;20169;-69
2024/02/12 06:03:57;;;;;;;4.90;4.40;;;15.30;61.50;;;;;;5115636;28;20540;-69
2024/02/12 06:06:22;;;;;;;5.07;4.22;;;15.40;61.70;;;;;;5115244;28;20170;-70
2024/02/12 06:08:49;;;;;;;5.68;4.53;;;15.30;61.60;;;;;;5115105;28;20173;-70
2024/02/12 06:11:14;;;;;;;5.05;4.55;;;15.30;61.80;;;;;;5115596;28;20177;-70
2024/02/12 06:13:40;;;;;;;7.60;5.22;;;15.40;61.50;;;;;;5114613;28;20255;-69
2024/02/12 06:16:06;;;;;;;6.25;5.18;;;15.30;61.50;;;;;;5114773;28;20633;-68
2024/02/12 06:18:34;;;;;;;5.20;4.70;;;15.30;61.50;;;;;;5115096;28;20556;-69
2024/02/12 06:21:00;;;;;;;5.68;5.18;;;15.30;61.50;;;;;;5115236;28;20260;-68
2024/02/12 06:23:26;;;;;;;5.35;4.60;;;15.30;61.50;;;;;;5114414;28;20655;-68
2024/02/12 06:25:51;;;;;;;5.13;4.63;;;15.60;61.80;;;;;;5114591;28;20267;-68
2024/02/12 06:28:17;;;;;;;5.97;5.38;;;15.30;61.70;;;;;;5115057;28;20264;-69
2024/02/12 06:30:43;;;;;;;5.75;4.93;;;15.40;61.60;;;;;;5114394;28;20252;-69
2024/02/12 06:33:08;;;;;;;5.47;4.43;;;15.30;61.60;;;;;;5114950;28;20659;-70
2024/02/12 06:35:34;;;;;;;6.28;4.80;;;15.40;61.50;;;;;;5114588;28;20192;-71
2024/02/12 06:38:03;;;;;;;5.78;4.80;;;15.40;61.40;;;;;;5114541;28;20176;-70
2024/02/12 06:40:30;;;;;;;5.32;4.82;;;15.40;61.40;;;;;;5114841;28;20256;-70
2024/02/12 06:42:56;;;;;;;5.53;5.00;;;15.40;61.40;;;;;;5113815;28;20176;-71
2024/02/12 06:45:21;;;;;;;5.90;5.30;;;15.30;61.40;;;;;;5113899;28;20176;-71
2024/02/12 06:47:49;;;;;;;6.45;4.80;;;15.30;61.50;;;;;;5114861;28;20178;-71
2024/02/12 06:50:15;;;;;;;5.05;4.60;;;15.30;61.60;;;;;;5113970;28;20181;-71
2024/02/12 06:52:40;;;;;;;5.35;4.43;;;15.40;62.40;;;;;;5114460;28;20169;-69
2024/02/12 06:55:10;;;;;;;5.20;4.70;;;15.40;61.70;;;;;;5114531;28;20216;-69
2024/02/12 06:57:36;;;;;;;5.90;4.72;;;15.50;61.60;;;;;;5113661;28;20552;-69
2024/02/12 07:00:04;;;;;;;5.10;4.60;;;15.60;61.30;;;;;;5114582;28;20177;-69
2024/02/12 07:02:29;;;;;;;5.97;5.10;;;15.70;61.30;;;;;;5114150;28;20177;-69
2024/02/12 07:04:55;;;;;;;4.72;4.30;;;15.90;61.00;;;;;;5113716;28;20646;-70
2024/02/12 07:07:20;;;;;;;4.28;3.88;;;16.00;60.60;;;;;;5114242;28;20173;-71
2024/02/12 07:09:46;;;;;;;4.03;3.63;;;16.20;60.40;;;;;;5114519;28;20218;-70
2024/02/12 07:12:11;;;;;;;4.45;3.90;;;16.30;60.10;;;;;;5113680;28;20169;-70
2024/02/12 07:14:37;;;;;;;3.88;3.58;;;16.50;59.80;;;;;;5113921;28;20262;-70
2024/02/12 07:17:05;;;;;;;3.70;3.40;;;16.60;59.50;;;;;;5114276;28;20176;-69
2024/02/12 07:19:35;;;;;;;3.80;3.50;;;16.80;59.30;;;;;;5113055;28;20180;-68
2024/02/12 07:22:00;;;;;;;4.82;3.72;;;17.00;59.00;;;;;;5114316;28;20226;-69
2024/02/12 07:24:26;;;;;;;4.00;3.45;;;17.00;58.80;;;;;;5113796;28;20177;-69
2024/02/12 07:26:51;;;;;;;3.72;3.25;;;17.10;58.70;;;;;;5113347;28;20177;-68
2024/02/12 07:29:17;;;;;;;4.15;3.67;;;17.20;58.40;;;;;;5113763;28;20188;-69
2024/02/12 07:31:43;;;;;;;4.57;3.70;;;17.30;58.20;;;;;;5113801;28;20176;-70
2024/02/12 07:34:08;;;;;;;3.63;3.33;;;17.30;58.10;;;;;;5113272;28;20205;-70
2024/02/12 07:36:39;;;;;;;4.40;3.90;;;17.20;58.30;;;;;;5113736;28;20671;-70
2024/02/12 07:39:04;;;;;;;4.78;3.67;;;17.20;58.50;;;;;;5111756;28;20173;-70
2024/02/12 07:41:30;;;;;;;5.13;3.95;;;17.10;58.50;;;;;;5112762;28;20511;-71
2024/02/12 07:43:56;;;;;;;4.32;3.85;;;17.10;58.60;;;;;;5113810;28;20654;-70
2024/02/12 07:46:21;;;;;;;3.83;3.42;;;17.00;58.80;;;;;;5113259;28;20260;-71
2024/02/12 07:48:47;;;;;;;4.30;3.88;;;17.10;58.80;;;;;;5113189;28;20173;-71
2024/02/12 07:51:15;;;;;;;5.57;3.72;;;17.00;58.80;;;;;;5113745;28;20180;-70
2024/02/12 07:53:40;;;;;;;4.53;3.80;;;17.10;58.80;;;;;;5112216;28;20594;-70
2024/02/12 07:56:07;;;;;;;3.35;3.05;;;17.00;58.80;;;;;;5113553;28;20180;-69
2024/02/12 07:58:32;;;;;;;3.58;2.90;;;17.10;58.80;;;;;;5113044;28;20177;-70
2024/02/12 08:00:58;;;;;;;4.00;3.67;;;17.20;58.80;;;;;;5112424;28;20169;-70
2024/02/12 08:03:23;;;;;;;4.05;3.65;;;17.20;58.70;;;;;;5112919;28;20268;-69
2024/02/12 08:05:49;;;;;;;4.90;3.83;;;17.10;58.60;;;;;;5113193;28;20310;-71
2024/02/12 08:08:16;;;;;;;5.53;3.22;;;17.20;58.50;;;;;;5112640;28;20184;-69
2024/02/12 08:10:41;;;;;;;3.55;3.08;;;17.30;58.60;;;;;;5113264;28;20192;-70
2024/02/12 08:13:07;;;;;;;4.30;3.22;;;17.30;58.80;;;;;;5113106;28;20205;-69
2024/02/12 08:15:33;;;;;;;4.43;3.40;;;17.30;58.80;;;;;;5111751;28;20628;-71
2024/02/12 08:17:59;;;;;;;3.72;3.00;;;17.30;58.80;;;;;;5113275;28;20204;-73
2024/02/12 08:20:28;;;;;;;4.15;3.75;;;17.30;59.00;;;;;;5112871;28;20205;-73
2024/02/12 08:22:56;;;;;;;3.95;3.53;;;17.30;58.90;;;;;;5112449;28;20256;-73
2024/02/12 08:25:22;;;;;;;4.18;3.35;;;17.30;59.10;;;;;;5112597;28;20581;-74
2024/02/12 08:27:48;;;;;;;3.70;3.40;;;17.30;59.10;;;;;;5112983;28;20169;-74
2024/02/12 08:30:14;;;;;;;3.92;3.38;;;17.30;59.20;;;;;;5112191;28;20187;-72
2024/02/12 08:32:40;;;;;;;4.75;3.40;;;17.30;59.20;;;;;;5112764;28;20234;-73
2024/02/12 08:35:06;;;;;;;4.88;3.50;;;17.30;59.30;;;;;;5112948;28;20213;-72
2024/02/12 08:37:32;;;;;;;5.15;3.15;;;17.30;60.00;;;;;;5111728;28;20655;-73
2024/02/12 08:39:57;;;;;;;4.03;3.63;;;17.40;59.30;;;;;;5112733;28;20186;-73
2024/02/12 08:42:23;;;;;;;4.35;3.08;;;17.40;59.40;;;;;;5112414;28;20178;-72
2024/02/12 08:44:51;;;;;;;3.17;2.78;;;17.40;59.40;;;;;;5111968;28;20188;-71
2024/02/12 08:47:16;;;;;;;4.78;3.40;;;17.50;60.10;;;;;;5112743;28;20180;-67
2024/02/12 08:49:43;;;;;;;3.50;3.03;;;17.50;59.30;;;;;;5111965;28;20177;-68
2024/02/12 08:52:09;;;;;;;4.80;3.00;;;17.50;59.30;;;;;;5112836;28;20598;-69
2024/02/12 08:54:34;;;;;;;5.43;2.80;;;17.60;59.30;;;;;;5112042;28;20256;-69
2024/02/12 08:57:03;;;;;;;4.57;3.40;;;17.60;59.20;;;;;;5111991;28;20179;-69
2024/02/12 08:59:28;;;;;;;5.68;3.33;;;17.60;59.20;;;;;;5112217;28;20229;-69
2024/02/12 09:01:54;;;;;;;5.60;3.58;;;17.60;59.20;;;;;;5112679;28;20169;-70
2024/02/12 09:04:20;;;;;;;5.55;2.78;;;17.50;59.20;;;;;;5111810;28;20212;-69
2024/02/12 09:06:46;;;;;;;4.45;3.40;;;17.60;59.20;;;;;;5112765;28;20176;-69
2024/02/12 09:09:15;;;;;;;4.75;3.25;;;17.50;59.30;;;;;;5112515;28;20177;-69
2024/02/12 09:11:41;;;;;;;4.07;3.28;;;17.50;59.30;;;;;;5111387;28;20520;-69
2024/02/12 09:14:08;;;;;;;5.10;3.20;;;17.40;59.60;;;;;;5112544;28;20232;-69
2024/02/12 09:16:34;;;;;;;3.13;2.75;;;17.30;59.60;;;;;;5112273;28;20169;-70
2024/02/12 09:18:59;;;;;;;3.83;3.00;;;17.30;59.80;;;;;;5111871;28;20550;-70
2024/02/12 09:21:25;;;;;;;4.90;3.00;;;17.20;59.90;;;;;;5112183;28;20246;-70
2024/02/12 09:23:50;;;;;;;5.00;3.63;;;17.20;59.80;;;;;;5112343;28;20388;-71
2024/02/12 09:26:17;;;;;;;4.93;3.53;;;17.20;59.90;;;;;;5111596;28;20598;-70
2024/02/12 09:28:43;;;;;;;3.15;2.83;;;17.20;60.00;;;;;;5112334;28;20177;-71
2024/02/12 09:31:08;;;;;;;3.63;3.33;;;17.20;60.10;;;;;;5112541;28;20176;-69
2024/02/12 09:33:34;;;;;;;4.70;3.80;;;17.10;60.10;;;;;;5111282;28;20213;-68
2024/02/12 09:36:00;;;;;;;4.15;3.40;;;17.10;60.20;;;;;;5112157;28;20196;-69
2024/02/12 09:38:27;;;;;;;3.92;3.35;;;17.00;60.30;;;;;;5111984;28;20177;-68
2024/02/12 09:40:53;;;;;;;4.72;3.80;;;16.90;60.30;;;;;;5111426;28;20181;-69
2024/02/12 09:43:23;;;;;;;3.67;3.30;;;16.90;60.50;;;;;;5111776;28;20166;-68
2024/02/12 09:45:50;;;;;;;3.55;3.20;;;16.90;60.60;;;;;;5112312;28;20219;-69
2024/02/12 09:48:15;;;;;;;4.30;3.42;;;16.90;60.70;;;;;;5111542;28;20582;-68
2024/02/12 09:50:44;;;;;;;4.93;3.17;;;16.90;60.80;;;;;;5110622;28;20762;-68
2024/02/12 09:53:11;;;;;;;3.65;3.20;;;16.90;60.60;;;;;;5111242;28;20219;-69
2024/02/12 09:55:36;;;;;;;4.18;3.38;;;17.00;60.70;;;;;;5110422;28;20185;-70
2024/02/12 09:58:04;;;;;;;3.50;2.92;;;16.90;60.60;;;;;;5111036;28;20600;-70
2024/02/12 10:00:30;;;;;;;4.25;3.63;;;16.90;60.60;;;;;;5110308;28;20285;-71
2024/02/12 10:02:56;;;;;;;5.03;3.80;;;16.90;60.70;;;;;;5115865;28;20248;-70
2024/02/12 10:05:23;;;;;;;4.40;3.58;;;16.80;60.60;;;;;;5115323;28;20707;-70
2024/02/12 10:07:50;;;;;;;4.50;3.90;;;16.80;60.70;;;;;;5114886;28;20188;-69
2024/02/12 10:10:17;;;;;;;4.53;3.45;;;16.80;60.70;;;;;;5115507;28;20238;-68
2024/02/12 10:12:43;;;;;;;4.40;4.00;;;16.70;60.80;;;;;;5115371;28;20643;-70
2024/02/12 10:15:13;;;;;;;4.57;4.20;;;16.70;60.90;;;;;;5114886;28;20212;-69
2024/02/12 10:17:39;;;;;;;5.05;3.70;;;16.80;60.90;;;;;;5115255;28;20193;-71
2024/02/12 10:20:09;;;;;;;4.97;4.07;;;16.80;60.80;;;;;;5115311;28;20256;-70
2024/02/12 10:22:38;;;;;;;4.57;4.00;;;16.80;60.90;;;;;;5114329;28;20196;-71
2024/02/12 10:25:05;;;;;;;5.63;3.75;;;16.80;60.80;;;;;;5113943;28;20180;-71
2024/02/12 10:27:30;;;;;;;4.72;4.32;;;16.80;60.70;;;;;;5115092;28;20184;-70
2024/02/12 10:29:58;;;;;;;5.43;4.38;;;16.80;60.70;;;;;;5114634;28;20181;-69
2024/02/12 10:32:24;;;;;;;4.55;4.15;;;16.80;60.70;;;;;;5114962;28;20205;-69
2024/02/12 10:34:50;;;;;;;4.25;3.85;;;16.80;60.70;;;;;;5115199;28;20250;-69
2024/02/12 10:37:17;;;;;;;4.65;4.25;;;16.80;60.70;;;;;;5096386;28;20626;-69
2024/02/12 10:39:42;;;;;;;4.45;4.05;;;16.80;60.80;;;;;;5114035;28;20177;-69
2024/02/12 10:42:10;;;;;;;4.40;4.00;;;16.70;60.70;;;;;;5113940;28;20169;-69
2024/02/12 10:44:38;;;;;;;4.60;4.10;;;16.70;60.80;;;;;;5095949;28;20707;-69
2024/02/12 10:47:09;;;;;;;4.07;3.67;;;16.70;60.70;;;;;;5113666;28;20211;-68
2024/02/12 10:49:35;;;;;;;5.88;4.40;;;16.80;60.70;;;;;;5113728;28;20175;-68
2024/02/12 10:52:01;;;;;;;4.45;4.05;;;16.90;60.60;;;;;;5113737;28;20177;-69
2024/02/12 10:54:26;;;;;;;5.15;4.65;;;16.90;60.60;;;;;;5114156;28;20590;-69
2024/02/12 10:56:53;;;;;;;4.13;3.83;;;16.80;60.60;;;;;;5113939;28;20238;-70
2024/02/12 10:59:19;;;;;;;4.88;4.32;;;16.80;60.60;;;;;;5114367;28;20184;-70
2024/02/12 11:01:45;;;;;;;4.50;4.10;;;16.80;60.70;;;;;;5114405;28;20540;-70
2024/02/12 11:04:17;;;;;;;3.92;3.63;;;16.70;60.70;;;;;;5112546;28;20169;-69
2024/02/12 11:06:42;;;;;;;4.82;4.43;;;16.80;60.90;;;;;;5114039;28;20210;-70
2024/02/12 11:09:09;;;;;;;4.45;3.90;;;16.80;60.90;;;;;;5113996;28;20173;-69
2024/02/12 11:11:43;;;;;;;4.78;4.32;;;16.80;61.00;;;;;;5112681;28;20177;-69
2024/02/12 11:14:13;;;;;;;4.03;3.63;;;16.80;60.70;;;;;;5114259;28;20204;-70
2024/02/12 11:16:39;;;;;;;4.65;4.25;;;16.80;60.80;;;;;;5113659;28;20260;-70
2024/02/12 11:19:07;;;;;;;4.50;4.10;;;16.90;60.80;;;;;;5113276;28;20234;-70
2024/02/12 11:21:36;;;;;;;4.38;3.97;;;16.80;60.70;;;;;;5113993;28;20181;-71
2024/02/12 11:24:11;;;;;;;4.30;3.90;;;16.90;60.60;;;;;;5114222;28;20177;-71
2024/02/12 11:26:38;;;;;;;4.40;4.00;;;16.80;60.60;;;;;;5112980;28;20699;-71
2024/02/12 11:29:07;;;;;;;4.63;4.03;;;16.90;60.80;;;;;;5113953;28;20302;-69
2024/02/12 11:31:39;;;;;;;4.55;4.07;;;16.90;60.70;;;;;;5113062;28;20205;-69
2024/02/12 11:34:12;;;;;;;4.20;3.72;;;16.80;60.70;;;;;;5113596;28;20216;-69
2024/02/12 11:36:38;;;;;;;4.88;4.25;;;16.80;60.80;;;;;;5113477;28;20177;-69
2024/02/12 11:39:07;;;;;;;4.78;4.22;;;16.80;61.00;;;;;;5113068;28;20211;-69
2024/02/12 11:41:32;;;;;;;4.30;3.90;;;16.70;61.00;;;;;;5113357;28;20184;-69
2024/02/12 11:43:58;;;;;;;5.47;4.28;;;16.80;61.00;;;;;;5112339;28;20173;-68
2024/02/12 11:46:24;;;;;;;3.95;3.45;;;16.80;60.70;;;;;;5112872;28;20177;-69
2024/02/12 11:48:50;;;;;;;4.55;3.90;;;16.80;60.80;;;;;;5112221;28;20309;-68
2024/02/12 11:51:23;;;;;;;4.72;4.28;;;16.70;60.90;;;;;;5112190;28;20169;-68
2024/02/12 11:53:51;;;;;;;4.88;4.38;;;16.70;60.90;;;;;;5112717;28;20229;-70
2024/02/12 11:56:19;;;;;;;4.95;4.07;;;16.70;60.90;;;;;;5113204;28;20181;-70
2024/02/12 11:58:44;;;;;;;5.00;4.45;;;16.60;60.90;;;;;;5113413;28;20653;-70
2024/02/12 12:01:12;;;;;;;4.00;3.60;;;16.60;60.90;;;;;;5112857;28;20259;-69
2024/02/12 12:03:37;;;;;;;4.03;3.72;;;16.60;61.00;;;;;;5113228;28;20203;-70
2024/02/12 12:06:03;;;;;;;4.43;3.50;;;16.60;61.00;;;;;;5095191;28;20619;-70
2024/02/12 12:08:30;;;;;;;4.05;3.53;;;16.60;61.00;;;;;;5112162;28;20173;-69
2024/02/12 12:11:08;;;;;;;4.22;3.92;;;16.60;61.00;;;;;;5111991;28;20179;-69
2024/02/12 12:13:33;;;;;;;6.30;3.92;;;16.60;60.90;;;;;;5112912;28;20207;-70
2024/02/12 12:15:59;;;;;;;3.70;3.40;;;16.60;60.90;;;;;;5112541;28;20181;-70
2024/02/12 12:18:25;;;;;;;4.25;3.85;;;16.60;60.90;;;;;;5112729;28;20252;-70
2024/02/12 12:20:54;;;;;;;4.60;3.67;;;16.70;60.90;;;;;;5112390;28;20200;-71
2024/02/12 12:23:20;;;;;;;4.72;3.58;;;16.70;61.00;;;;;;5112228;28;20177;-72
2024/02/12 12:25:47;;;;;;;4.90;3.60;;;16.60;61.00;;;;;;5113046;28;20169;-70
2024/02/12 12:28:14;;;;;;;3.95;3.55;;;16.60;61.00;;;;;;5112070;28;20200;-69
2024/02/12 12:30:39;;;;;;;3.83;3.20;;;16.60;60.90;;;;;;5112650;28;20201;-69
2024/02/12 12:33:05;;;;;;;3.55;3.25;;;16.60;61.10;;;;;;5112232;28;20228;-67
2024/02/12 12:35:33;;;;;;;3.53;3.15;;;16.60;61.00;;;;;;5111829;28;20164;-67
2024/02/12 12:38:00;;;;;;;3.70;3.40;;;16.60;61.00;;;;;;5112727;28;20169;-67
2024/02/12 12:40:25;;;;;;;3.97;3.55;;;16.60;61.00;;;;;;5112576;28;20181;-67
2024/02/12 12:42:53;;;;;;;3.55;3.22;;;16.50;61.10;;;;;;5111984;28;20171;-69
2024/02/12 12:45:20;;;;;;;3.20;3.00;;;16.50;61.00;;;;;;5112631;28;20184;-67
2024/02/12 12:47:45;;;;;;;3.88;3.25;;;16.50;60.90;;;;;;5112755;28;20225;-67
2024/02/12 12:50:13;;;;;;;4.55;3.15;;;16.50;60.90;;;;;;5111975;28;20173;-69
2024/02/12 12:52:39;;;;;;;4.82;3.00;;;16.60;60.70;;;;;;5112108;28;20237;-70
2024/02/12 12:55:10;;;;;;;3.72;3.33;;;16.60;60.80;;;;;;5112646;28;20236;-69
2024/02/12 12:57:36;;;;;;;3.60;3.20;;;16.60;60.80;;;;;;5111698;28;20184;-69
2024/02/12 13:00:15;;;;;;;3.75;2.78;;;16.60;61.00;;;;;;5112705;28;20181;-69